Time,TemperatureF,DewpointF,PressureIn,WindDirection,WindDirectionDegrees,WindSpeedMPH,WindSpeedGustMPH,Humidity,HourlyPrecipIn,Conditions,Clouds,dailyrainin,SoftwareType,DateUTC
2013-03-25 00:03:00,24.0,18.0,30.15,NNW,331,8.0,13.0,77,0.00,,,0.00,,2013-03-25 05:03:00,
2013-03-25 00:12:00,24.0,18.0,30.15,NNW,331,8.0,13.0,77,0.00,,,0.00,,2013-03-25 05:12:00,
2013-03-25 00:22:00,24.0,18.0,30.15,NW,310,8.0,13.0,76,0.00,,,0.00,,2013-03-25 05:22:00,
2013-03-25 00:32:00,24.0,17.0,30.15,NNW,335,7.0,15.0,75,0.00,,,0.00,,2013-03-25 05:32:00,
2013-03-25 00:42:00,24.0,17.0,30.15,NNW,335,7.0,15.0,75,0.00,,,0.00,,2013-03-25 05:42:00,
2013-03-25 00:52:00,25.0,18.0,30.15,NW,321,10.0,18.0,74,0.00,,,0.00,,2013-03-25 05:52:00,
2013-03-25 01:02:00,24.0,17.0,30.15,NNW,348,10.0,19.0,75,0.00,,,0.00,,2013-03-25 06:02:00,
2013-03-25 01:12:00,24.0,17.0,30.15,NNW,348,10.0,19.0,75,0.00,,,0.00,,2013-03-25 06:12:00,
2013-03-25 01:22:00,24.0,18.0,30.15,NW,311,8.0,18.0,76,0.00,,,0.00,,2013-03-25 06:22:00,
2013-03-25 01:32:00,23.0,17.0,30.15,NW,312,7.0,13.0,78,0.00,,,0.00,,2013-03-25 06:32:00,
2013-03-25 01:42:00,23.0,17.0,30.15,NW,312,7.0,13.0,78,0.00,,,0.00,,2013-03-25 06:42:00,
2013-03-25 01:52:00,23.0,17.0,30.15,WNW,294,7.0,14.0,79,0.00,,,0.00,,2013-03-25 06:52:00,
2013-03-25 02:02:00,23.0,18.0,30.15,NW,321,8.0,13.0,80,0.00,,,0.00,,2013-03-25 07:02:00,
2013-03-25 02:12:00,23.0,18.0,30.15,NW,321,8.0,13.0,80,0.00,,,0.00,,2013-03-25 07:12:00,
2013-03-25 02:22:00,24.0,19.0,30.15,WNW,300,8.0,15.0,80,0.00,,,0.00,,2013-03-25 07:22:00,
2013-03-25 02:32:00,24.0,19.0,30.15,NNW,330,8.0,16.0,80,0.00,,,0.00,,2013-03-25 07:32:00,
2013-03-25 02:42:00,24.0,19.0,30.15,NNW,330,8.0,16.0,80,0.00,,,0.00,,2013-03-25 07:42:00,
2013-03-25 02:53:00,24.0,19.0,30.15,NW,315,12.0,19.0,80,0.00,,,0.00,,2013-03-25 07:53:00,
2013-03-25 03:02:00,24.0,19.0,30.15,NW,309,10.0,16.0,81,0.00,,,0.00,,2013-03-25 08:02:00,
2013-03-25 03:12:00,24.0,19.0,30.15,NW,309,10.0,16.0,81,0.00,,,0.00,,2013-03-25 08:12:00,
2013-03-25 03:22:00,25.0,20.0,30.15,NW,318,11.0,25.0,81,0.00,,,0.00,,2013-03-25 08:22:00,
2013-03-25 03:32:00,25.0,20.0,30.15,NW,315,11.0,21.0,81,0.00,,,0.00,,2013-03-25 08:32:00,
2013-03-25 03:42:00,25.0,20.0,30.15,NW,315,11.0,21.0,81,0.00,,,0.00,,2013-03-25 08:42:00,
2013-03-25 03:52:00,25.0,20.0,30.15,NNW,336,9.0,20.0,81,0.00,,,0.00,,2013-03-25 08:52:00,
2013-03-25 04:02:00,25.0,20.0,30.15,NNW,327,12.0,21.0,81,0.00,,,0.00,,2013-03-25 09:02:00,
2013-03-25 04:12:00,25.0,20.0,30.15,NNW,327,12.0,21.0,81,0.00,,,0.00,,2013-03-25 09:12:00,
2013-03-25 04:22:00,25.0,20.0,30.16,NNW,336,10.0,18.0,82,0.00,,,0.00,,2013-03-25 09:22:00,
2013-03-25 04:33:00,25.0,20.0,30.16,NNW,338,12.0,19.0,82,0.00,,,0.00,,2013-03-25 09:33:00,
2013-03-25 04:42:00,25.0,20.0,30.16,NNW,338,12.0,19.0,82,0.00,,,0.00,,2013-03-25 09:42:00,
2013-03-25 04:52:00,25.0,21.0,30.16,NW,309,11.0,21.0,83,0.00,,,0.00,,2013-03-25 09:52:00,
2013-03-25 05:03:00,25.0,21.0,30.16,North,360,12.0,20.0,83,0.00,,,0.00,,2013-03-25 10:03:00,
2013-03-25 05:12:00,25.0,21.0,30.16,North,360,12.0,20.0,83,0.00,,,0.00,,2013-03-25 10:12:00,
2013-03-25 05:22:00,25.0,21.0,30.16,NW,320,11.0,18.0,84,0.00,,,0.00,,2013-03-25 10:22:00,
2013-03-25 05:32:00,25.0,21.0,30.17,NW,320,9.0,21.0,85,0.00,,,0.00,,2013-03-25 10:32:00,
2013-03-25 05:42:00,25.0,21.0,30.17,NW,320,9.0,21.0,85,0.00,,,0.00,,2013-03-25 10:42:00,
2013-03-25 05:54:00,26.0,22.0,30.17,NNW,333,9.0,18.0,85,0.00,,,0.00,,2013-03-25 10:54:00,
2013-03-25 06:03:00,26.0,22.0,30.18,NW,315,10.0,18.0,83,0.00,,,0.00,,2013-03-25 11:03:00,
2013-03-25 06:12:00,26.0,21.0,30.18,NNW,336,11.0,20.0,81,0.00,,,0.00,,2013-03-25 11:12:00,
2013-03-25 06:23:00,26.0,21.0,30.18,NNW,336,11.0,20.0,81,0.00,,,0.00,,2013-03-25 11:23:00,
2013-03-25 06:32:00,25.0,21.0,30.19,NW,325,9.0,14.0,83,0.00,,,0.00,,2013-03-25 11:32:00,
2013-03-25 06:42:00,25.0,21.0,30.19,NW,325,9.0,14.0,83,0.00,,,0.00,,2013-03-25 11:42:00,
2013-03-25 06:52:00,25.0,20.0,30.19,NW,324,8.0,15.0,82,0.00,,,0.00,,2013-03-25 11:52:00,
2013-03-25 07:02:00,25.0,20.0,30.20,NNW,342,12.0,20.0,82,0.00,,,0.00,,2013-03-25 12:02:00,
2013-03-25 07:13:00,25.0,20.0,30.20,NNW,342,12.0,20.0,82,0.00,,,0.00,,2013-03-25 12:13:00,
2013-03-25 07:23:00,24.0,20.0,30.21,NNW,332,9.0,18.0,83,0.00,,,0.00,,2013-03-25 12:23:00,
2013-03-25 07:32:00,24.0,19.0,30.21,NW,321,9.0,20.0,82,0.00,,,0.00,,2013-03-25 12:32:00,
2013-03-25 07:42:00,24.0,19.0,30.21,NW,321,9.0,20.0,82,0.00,,,0.00,,2013-03-25 12:42:00,
2013-03-25 07:53:00,23.0,19.0,30.22,North,355,8.0,16.0,83,0.00,,,0.00,,2013-03-25 12:53:00,
2013-03-25 08:02:00,23.0,19.0,30.22,NNW,331,11.0,21.0,84,0.00,,,0.00,,2013-03-25 13:02:00,
2013-03-25 08:13:00,23.0,19.0,30.22,NNW,331,11.0,21.0,84,0.00,,,0.00,,2013-03-25 13:13:00,
2013-03-25 08:22:00,23.0,19.0,30.22,NW,310,9.0,18.0,83,0.00,,,0.00,,2013-03-25 13:22:00,
2013-03-25 08:32:00,23.0,19.0,30.23,West,278,9.0,18.0,83,0.00,,,0.00,,2013-03-25 13:32:00,
2013-03-25 08:42:00,23.0,19.0,30.23,West,278,9.0,18.0,83,0.00,,,0.00,,2013-03-25 13:42:00,
2013-03-25 08:52:00,24.0,19.0,30.23,NW,311,9.0,16.0,82,0.00,,,0.00,,2013-03-25 13:52:00,
2013-03-25 09:03:00,25.0,20.0,30.24,NW,304,9.0,16.0,81,0.00,,,0.00,,2013-03-25 14:03:00,
2013-03-25 09:12:00,25.0,20.0,30.24,NW,304,9.0,16.0,81,0.00,,,0.00,,2013-03-25 14:12:00,
2013-03-25 09:22:00,26.0,21.0,30.24,NW,323,12.0,23.0,80,0.00,,,0.00,,2013-03-25 14:22:00,
2013-03-25 09:32:00,26.0,20.0,30.25,NNW,329,11.0,20.0,78,0.00,,,0.00,,2013-03-25 14:32:00,
2013-03-25 09:42:00,26.0,20.0,30.25,NNW,329,11.0,20.0,78,0.00,,,0.00,,2013-03-25 14:42:00,
2013-03-25 09:53:00,27.0,21.0,30.25,NW,313,11.0,20.0,77,0.00,,,0.00,,2013-03-25 14:53:00,
2013-03-25 10:02:00,28.0,20.0,30.25,North,355,12.0,24.0,73,0.00,,,0.00,,2013-03-25 15:02:00,
2013-03-25 10:12:00,28.0,20.0,30.25,North,355,12.0,24.0,73,0.00,,,0.00,,2013-03-25 15:12:00,
2013-03-25 10:22:00,28.0,20.0,30.25,NNW,327,8.0,20.0,73,0.00,,,0.00,,2013-03-25 15:22:00,
2013-03-25 10:32:00,28.0,20.0,30.26,NNW,329,13.0,22.0,71,0.00,,,0.00,,2013-03-25 15:32:00,
2013-03-25 10:42:00,28.0,20.0,30.26,NNW,329,13.0,22.0,71,0.00,,,0.00,,2013-03-25 15:42:00,
2013-03-25 10:53:00,28.0,20.0,30.27,NNW,336,12.0,20.0,70,0.00,,,0.00,,2013-03-25 15:53:00,
2013-03-25 11:03:00,29.0,19.0,30.27,NNW,344,16.0,25.0,67,0.00,,,0.00,,2013-03-25 16:03:00,
2013-03-25 11:12:00,29.0,19.0,30.27,NNW,344,16.0,25.0,67,0.00,,,0.00,,2013-03-25 16:12:00,
2013-03-25 11:23:00,29.0,19.0,30.27,NNW,344,16.0,25.0,67,0.00,,,0.00,,2013-03-25 16:23:00,
2013-03-25 11:33:00,29.0,19.0,30.28,NW,306,11.0,22.0,67,0.00,,,0.00,,2013-03-25 16:33:00,
2013-03-25 11:43:00,29.0,19.0,30.28,NW,306,11.0,22.0,67,0.00,,,0.00,,2013-03-25 16:43:00,
2013-03-25 11:53:00,29.0,19.0,30.28,NNW,342,15.0,25.0,67,0.00,,,0.00,,2013-03-25 16:53:00,
2013-03-25 12:02:00,29.0,19.0,30.28,NW,319,14.0,25.0,67,0.00,,,0.00,,2013-03-25 17:02:00,
2013-03-25 12:12:00,29.0,19.0,30.28,NW,319,14.0,25.0,67,0.00,,,0.00,,2013-03-25 17:12:00,
2013-03-25 12:32:00,29.0,20.0,30.28,NW,323,14.0,28.0,69,0.00,,,0.00,,2013-03-25 17:32:00,
2013-03-25 12:42:00,29.0,20.0,30.28,NW,323,14.0,28.0,69,0.00,,,0.00,,2013-03-25 17:42:00,
2013-03-25 12:53:00,30.0,21.0,30.29,North,360,14.0,21.0,69,0.00,,,0.00,,2013-03-25 17:53:00,
2013-03-25 13:03:00,30.0,21.0,30.28,NNW,327,12.0,20.0,70,0.00,,,0.00,,2013-03-25 18:03:00,
2013-03-25 13:12:00,30.0,21.0,30.28,NNW,327,12.0,20.0,70,0.00,,,0.00,,2013-03-25 18:12:00,
2013-03-25 13:22:00,30.0,21.0,30.28,NNW,336,12.0,23.0,69,0.00,,,0.00,,2013-03-25 18:22:00,
2013-03-25 13:32:00,29.0,21.0,30.29,NW,308,11.0,20.0,71,0.00,,,0.00,,2013-03-25 18:32:00,
2013-03-25 13:42:00,29.0,21.0,30.29,NW,308,11.0,20.0,71,0.00,,,0.00,,2013-03-25 18:42:00,
2013-03-25 13:53:00,30.0,21.0,30.28,NW,311,12.0,23.0,70,0.00,,,0.00,,2013-03-25 18:53:00,
2013-03-25 14:03:00,30.0,21.0,30.28,NW,311,11.0,19.0,70,0.00,,,0.00,,2013-03-25 19:03:00,
2013-03-25 14:12:00,30.0,21.0,30.28,NW,311,11.0,19.0,70,0.00,,,0.00,,2013-03-25 19:12:00,
2013-03-25 14:22:00,31.0,21.0,30.28,NNW,338,10.0,19.0,67,0.00,,,0.00,,2013-03-25 19:22:00,
2013-03-25 14:33:00,32.0,22.0,30.28,NW,323,12.0,23.0,66,0.00,,,0.00,,2013-03-25 19:33:00,
2013-03-25 14:42:00,32.0,22.0,30.28,NW,323,12.0,23.0,66,0.00,,,0.00,,2013-03-25 19:42:00,
2013-03-25 14:52:00,32.0,22.0,30.28,WNW,296,11.0,19.0,67,0.00,,,0.00,,2013-03-25 19:52:00,
2013-03-25 15:02:00,31.0,23.0,30.28,NNW,334,12.0,20.0,71,0.00,,,0.00,,2013-03-25 20:02:00,
2013-03-25 15:12:00,31.0,23.0,30.28,NNW,334,12.0,20.0,71,0.00,,,0.00,,2013-03-25 20:12:00,
2013-03-25 15:22:00,31.0,22.0,30.28,NW,315,10.0,23.0,70,0.00,,,0.00,,2013-03-25 20:22:00,
2013-03-25 15:32:00,32.0,23.0,30.28,NW,325,8.0,19.0,69,0.00,,,0.00,,2013-03-25 20:32:00,
2013-03-25 15:42:00,32.0,23.0,30.28,NW,325,8.0,19.0,69,0.00,,,0.00,,2013-03-25 20:42:00,
2013-03-25 15:52:00,31.0,24.0,30.28,NNE,20,10.0,18.0,75,0.00,,,0.00,,2013-03-25 20:52:00,
2013-03-25 16:02:00,30.0,22.0,30.28,NNW,348,12.0,20.0,73,0.00,,,0.00,,2013-03-25 21:02:00,
2013-03-25 16:12:00,30.0,22.0,30.28,NNW,348,12.0,20.0,73,0.00,,,0.00,,2013-03-25 21:12:00,
2013-03-25 16:22:00,30.0,23.0,30.29,NNW,329,12.0,20.0,74,0.00,,,0.00,,2013-03-25 21:22:00,
2013-03-25 16:33:00,31.0,24.0,30.28,NNW,332,10.0,19.0,74,0.00,,,0.00,,2013-03-25 21:33:00,
2013-03-25 16:42:00,31.0,24.0,30.28,NNW,332,10.0,19.0,74,0.00,,,0.00,,2013-03-25 21:42:00,
2013-03-25 16:52:00,31.0,23.0,30.29,NNW,335,11.0,24.0,71,0.00,,,0.00,,2013-03-25 21:52:00,
2013-03-25 17:03:00,31.0,22.0,30.29,North,355,10.0,20.0,70,0.00,,,0.00,,2013-03-25 22:03:00,
2013-03-25 17:12:00,31.0,22.0,30.29,North,355,10.0,20.0,70,0.00,,,0.00,,2013-03-25 22:12:00,
2013-03-25 17:23:00,30.0,22.0,30.30,NW,317,12.0,19.0,72,0.00,,,0.00,,2013-03-25 22:23:00,
2013-03-25 17:33:00,29.0,23.0,30.30,NNW,338,8.0,19.0,78,0.00,,,0.00,,2013-03-25 22:33:00,
2013-03-25 17:42:00,29.0,23.0,30.30,NNW,338,8.0,19.0,78,0.00,,,0.00,,2013-03-25 22:42:00,
2013-03-25 17:52:00,30.0,22.0,30.30,NNE,23,11.0,19.0,73,0.00,,,0.00,,2013-03-25 22:52:00,
2013-03-25 18:02:00,30.0,22.0,30.30,NNW,338,8.0,16.0,73,0.00,,,0.00,,2013-03-25 23:02:00,
2013-03-25 18:12:00,30.0,22.0,30.30,NNW,338,8.0,16.0,73,0.00,,,0.00,,2013-03-25 23:12:00,
2013-03-25 18:23:00,30.0,22.0,30.31,NNW,345,10.0,15.0,73,0.00,,,0.00,,2013-03-25 23:23:00,
2013-03-25 18:42:00,30.0,22.0,30.31,NNW,348,10.0,20.0,72,0.00,,,0.00,,2013-03-25 23:42:00,
2013-03-25 18:52:00,30.0,22.0,30.31,North,9,8.0,15.0,71,0.00,,,0.00,,2013-03-25 23:52:00,
2013-03-25 19:02:00,30.0,21.0,30.32,NNW,338,8.0,14.0,69,0.00,,,0.00,,2013-03-26 00:02:00,
2013-03-25 19:12:00,30.0,21.0,30.32,NNW,338,8.0,14.0,69,0.00,,,0.00,,2013-03-26 00:12:00,
2013-03-25 19:22:00,30.0,21.0,30.32,North,5,6.0,13.0,69,0.00,,,0.00,,2013-03-26 00:22:00,
2013-03-25 19:32:00,30.0,21.0,30.33,NNW,343,7.0,12.0,68,0.00,,,0.00,,2013-03-26 00:32:00,
2013-03-25 19:42:00,30.0,21.0,30.33,NNW,343,7.0,12.0,68,0.00,,,0.00,,2013-03-26 00:42:00,
2013-03-25 19:52:00,29.0,20.0,30.33,NNW,327,6.0,13.0,70,0.00,,,0.00,,2013-03-26 00:52:00,
2013-03-25 20:02:00,29.0,20.0,30.34,North,10,7.0,13.0,69,0.00,,,0.00,,2013-03-26 01:02:00,
2013-03-25 20:12:00,29.0,20.0,30.34,North,10,7.0,13.0,69,0.00,,,0.00,,2013-03-26 01:12:00,
2013-03-25 20:22:00,29.0,20.0,30.34,North,5,7.0,13.0,69,0.00,,,0.00,,2013-03-26 01:22:00,
2013-03-25 20:32:00,29.0,21.0,30.34,NNW,338,9.0,15.0,71,0.00,,,0.00,,2013-03-26 01:32:00,
2013-03-25 20:42:00,29.0,21.0,30.34,NNW,338,9.0,15.0,71,0.00,,,0.00,,2013-03-26 01:42:00,
2013-03-25 20:52:00,28.0,20.0,30.35,NNW,332,4.0,11.0,72,0.00,,,0.00,,2013-03-26 01:52:00,
2013-03-25 21:02:00,28.0,20.0,30.35,NW,315,5.0,10.0,72,0.00,,,0.00,,2013-03-26 02:02:00,
2013-03-25 21:12:00,28.0,20.0,30.35,NW,315,5.0,10.0,72,0.00,,,0.00,,2013-03-26 02:12:00,
2013-03-25 21:22:00,28.0,20.0,30.35,NNW,340,7.0,11.0,71,0.00,,,0.00,,2013-03-26 02:22:00,
2013-03-25 21:32:00,28.0,20.0,30.35,NW,325,6.0,10.0,72,0.00,,,0.00,,2013-03-26 02:32:00,
2013-03-25 21:42:00,28.0,20.0,30.35,NW,325,6.0,10.0,72,0.00,,,0.00,,2013-03-26 02:42:00,
2013-03-25 21:52:00,27.0,19.0,30.36,NNW,344,5.0,9.0,72,0.00,,,0.00,,2013-03-26 02:52:00,
2013-03-25 22:02:00,27.0,20.0,30.36,NNW,327,3.0,7.0,73,0.00,,,0.00,,2013-03-26 03:02:00,
2013-03-25 22:12:00,27.0,20.0,30.36,NNW,327,3.0,7.0,73,0.00,,,0.00,,2013-03-26 03:12:00,
2013-03-25 22:22:00,27.0,20.0,30.36,NNW,348,4.0,8.0,73,0.00,,,0.00,,2013-03-26 03:22:00,
2013-03-25 22:33:00,26.0,19.0,30.37,NW,325,3.0,9.0,73,0.00,,,0.00,,2013-03-26 03:33:00,
2013-03-25 22:42:00,26.0,19.0,30.37,NW,325,3.0,9.0,73,0.00,,,0.00,,2013-03-26 03:42:00,
2013-03-25 22:53:00,26.0,19.0,30.37,NW,311,1.0,6.0,74,0.00,,,0.00,,2013-03-26 03:53:00,
2013-03-25 23:03:00,26.0,19.0,30.37,NNW,338,1.0,4.0,76,0.00,,,0.00,,2013-03-26 04:03:00,
2013-03-25 23:12:00,26.0,19.0,30.37,NNW,338,1.0,4.0,76,0.00,,,0.00,,2013-03-26 04:12:00,
2013-03-25 23:23:00,26.0,19.0,30.37,NW,323,3.0,7.0,76,0.00,,,0.00,,2013-03-26 04:23:00,
2013-03-25 23:32:00,25.0,19.0,30.37,WNW,302,2.0,7.0,76,0.00,,,0.00,,2013-03-26 04:32:00,
2013-03-25 23:43:00,25.0,19.0,30.37,WNW,302,2.0,7.0,76,0.00,,,0.00,,2013-03-26 04:43:00,
2013-03-25 23:52:00,25.0,19.0,30.38,NW,312,2.0,7.0,76,0.00,,,0.00,,2013-03-26 04:52:00,